Villisca, Iowa
Current Conditions -  °F | °C
As of 11:15 AM on Saturday 25 Oct 2014 (Local Time) from KICL Reporting Station
Clear Clear  
Wind Chill: 66°   Ceiling: Unl
Heat Index: 66°   Visibility: 10mi
Dew Point: 45°   Wind: 8mph
Humidity: 46%   Direction: 60°ENE
Pressure: 30.12"   Gusts: 15mph
Location:  40.93°N, 94.98°W
Report Text: KICL 251615Z AUTO 06007G13KT 030V090 10SM CLR 19/07 A3012 RMK AO2
Loading
Personal Weather Stations






























Interactive Weather Map
Tropical Storm Tracking
New forecast layout! Learn more

10-Day Weather Forecast

Advertisements
Track Severe Weather on mobile